Chadstone Weather > Observations for 01/10/20

Select Day:



Observations
Time Temp Hum DP Wind Gust Dir Rain >9am Press
C % C kph kph mm hPa
00:00 12.3 84 9.7 5.8 12.2 W 4.8 1017.7
00:10 12.2 84 9.6 5.4 12.2 WNW 4.8 1017.8
00:20 12.1 84 9.5 5.8 12.2 NW 4.8 1018.0
00:30 12.0 83 9.2 6.8 11.2 WNW 4.8 1018.1
00:40 12.0 84 9.4 7.0 17.3 WNW 4.8 1018.2
00:50 12.0 83 9.2 5.8 13.3 W 4.8 1018.4
01:00 11.9 84 9.3 6.3 13.3 W 4.8 1018.5
01:10 12.0 83 9.2 5.1 11.2 NW 4.8 1018.6
01:20 12.0 83 9.2 4.6 12.2 NW 4.8 1018.7
01:30 12.0 83 9.2 6.5 12.2 WNW 4.8 1018.5
01:40 12.0 83 9.2 4.9 12.2 W 4.8 1018.3
01:50 11.9 84 9.3 5.3 11.2 W 4.8 1018.2
02:00 11.9 84 9.3 4.5 11.2 WNW 4.8 1018.1
02:10 11.9 84 9.3 6.6 13.3 WNW 4.8 1018.0
02:20 11.7 83 8.9 5.1 11.2 W 4.8 1018.0
02:30 11.6 83 8.8 3.8 9.7 WNW 4.8 1018.1
02:40 11.4 83 8.6 3.7 8.6 W 4.8 1018.1
02:50 11.3 83 8.5 3.0 12.2 NW 4.8 1018.2
03:00 11.3 83 8.5 3.5 7.2 WNW 4.8 1018.3
03:10 11.1 83 8.3 3.8 7.2 WNW 4.8 1018.2
03:20 11.1 83 8.3 3.0 9.7 NW 4.8 1018.3
03:30 11.0 83 8.2 4.2 9.7 NW 4.8 1018.5
03:40 11.0 83 8.2 5.2 11.2 WNW 4.8 1018.8
03:50 11.0 83 8.2 4.7 9.7 NW 4.8 1018.7
04:00 11.0 83 8.2 4.0 11.2 W 4.8 1018.8
04:10 11.0 83 8.2 6.1 11.2 W 4.8 1018.9
04:20 11.0 83 8.2 6.1 11.2 W 4.8 1019.0
04:30 11.0 83 8.2 6.1 11.2 W 4.8 1019.0
04:40 10.6 84 8.0 0.6 5.0 WNW 4.8 1019.1
04:50 10.4 85 8.0 2.2 5.0 NW 4.8 1019.3
05:00 10.4 85 8.0 1.5 5.0 N 4.8 1019.3
05:10 10.2 85 7.8 2.5 3.6 N 4.8 1019.6
05:20 9.9 86 7.7 1.7 3.6 N 4.8 1019.7
05:30 9.7 86 7.5 2.1 3.6 N 4.8 1019.8
05:40 9.6 86 7.4 1.1 3.6 N 4.8 1020.1
05:50 9.6 86 7.4 1.1 3.6 N 4.8 1020.3
06:00 9.6 86 7.4 1.1 3.6 N 4.8 1020.5
06:10 9.6 86 7.4 1.1 3.6 N 4.8 1020.7
06:20 9.6 86 7.4 1.1 3.6 N 4.8 1020.6
06:30 9.6 86 7.4 1.1 3.6 N 4.8 1020.8
06:40 9.6 86 7.4 1.1 3.6 N 4.8 1021.1
06:50 9.6 86 7.4 1.1 3.6 N 4.8 1021.2
07:00 9.6 86 7.4 1.1 3.6 N 4.8 1021.4
07:10 9.6 86 7.4 1.1 3.6 N 4.8 1021.5
07:20 9.6 86 7.4 1.1 3.6 N 4.8 1021.8
07:30 9.6 86 7.4 1.1 3.6 N 4.8 1021.7
07:40 9.6 86 7.4 1.1 3.6 N 4.8 1021.7
07:50 11.3 85 8.9 7.2 9.7 WSW 4.8 1021.7
08:00 11.5 82 8.5 9.0 15.8 WNW 4.8 1021.7
08:10 11.8 81 8.6 9.5 13.3 NW 4.8 1022.0
08:20 12.2 79 8.7 7.2 15.8 NW 4.8 1022.0
08:30 12.4 77 8.5 8.5 15.8 W 4.8 1022.3
08:40 12.7 76 8.6 5.8 13.3 WNW 4.8 1022.4
08:50 13.1 74 8.6 7.1 12.2 W 4.8 1022.5
09:00 13.1 74 8.6 7.2 12.2 W 0.0 1022.7
09:10 13.1 74 8.6 7.2 12.2 W 0.0 1022.8
09:20 13.1 74 8.6 7.2 12.2 W 0.0 1022.8
09:30 14.2 67 8.2 9.8 15.8 NW 0.0 1022.9
09:40 14.4 65 7.9 6.5 18.4 W 0.0 1022.8
09:50 14.5 64 7.8 7.1 18.4 WSW 0.0 1022.9
10:00 14.9 64 8.2 8.1 19.4 WNW 0.0 1022.8
10:10 15.3 61 7.8 8.0 17.3 W 0.0 1022.7
10:20 15.5 60 7.8 8.9 17.3 WNW 0.3 1022.8
10:30 15.8 57 7.3 8.7 15.8 NW 0.3 1022.6
10:40 16.2 56 7.4 7.1 15.8 WNW 0.3 1022.4
10:50 16.2 55 7.2 7.0 15.8 W 0.3 1022.4
11:00 16.6 54 7.3 4.8 12.2 WNW 0.3 1022.3
11:10 16.7 53 7.1 4.7 12.2 W 0.3 1022.3
11:20 17.0 51 6.8 4.0 14.8 WNW 0.3 1022.4
11:30 17.2 51 7.0 6.6 13.3 SW 0.3 1022.3
11:40 17.6 50 7.1 7.1 13.3 W 0.3 1022.2
11:50 17.6 47 6.2 9.8 17.3 WNW 0.3 1022.0
12:00 17.4 47 6.0 7.2 19.4 WSW 0.3 1022.1
12:10 17.2 46 5.5 6.2 18.4 W 0.3 1021.9
12:20 17.1 46 5.4 7.8 20.9 W 0.3 1021.8
12:30 17.3 48 6.2 7.6 15.8 W 0.3 1021.8
12:40 17.5 46 5.8 4.9 12.2 W 0.3 1021.8
12:50 17.9 47 6.4 6.5 14.8 W 0.3 1022.0
13:00 18.4 46 6.6 9.4 18.4 WSW 0.3 1022.3
13:10 18.5 46 6.7 6.2 15.8 WSW 0.3 1022.2
13:20 18.4 45 6.3 9.5 18.4 SW 0.3 1022.5
13:30 18.3 45 6.2 8.9 18.4 W 0.3 1022.5
13:40 18.3 44 5.8 10.1 22.0 WNW 0.3 1022.3
13:50 18.2 45 6.1 7.2 17.3 WSW 0.3 1022.1
14:00 18.4 44 5.9 3.1 12.2 WSW 0.3 1022.0
14:10 18.7 45 6.5 7.1 22.0 NW 0.3 1021.9
14:20 19.0 42 5.8 13.4 22.0 NW 0.3 1022.0
14:30 19.1 43 6.2 6.7 15.8 WNW 0.3 1021.7
14:40 19.1 42 5.9 6.5 18.4 WNW 0.3 1021.7
14:50 19.2 41 5.6 8.7 18.4 WNW 0.3 1021.3
15:00 19.2 42 6.0 6.8 15.8 NW 0.3 1021.0
15:10 19.2 42 6.0 9.8 23.4 NNW 5.1 1020.9
15:20 19.2 41 5.6 9.0 18.4 WNW 5.1 1021.1
15:30 19.5 43 6.6 9.0 17.3 NNW 5.1 1021.3
15:40 19.4 44 6.8 6.2 20.9 NNW 5.1 1021.3
15:50 19.4 43 6.5 11.2 22.0 NNW 5.1 1021.5
16:00 19.4 43 6.5 9.6 19.4 NW 5.1 1021.6
16:10 19.2 43 6.3 11.2 27.0 N 5.1 1021.7
16:20 19.5 44 6.9 10.5 22.0 NW 5.1 1021.7
16:30 19.2 41 5.6 13.3 25.6 WNW 5.1 1021.8
16:40 19.2 41 5.6 8.0 24.5 NW 5.1 1022.0
16:50 19.1 41 5.5 11.6 20.9 NNW 5.1 1021.9
17:00 18.9 44 6.4 13.3 29.5 NNW 5.1 1021.9
17:10 18.8 45 6.6 9.4 20.9 NW 5.1 1022.0
17:20 18.6 45 6.4 14.3 29.5 NW 5.1 1022.3
17:30 18.4 45 6.3 13.8 25.6 NW 5.1 1022.4
17:40 18.2 46 6.4 15.0 24.5 NNW 5.1 1022.7
17:50 18.0 45 5.9 16.3 34.2 N 5.1 1022.8
18:00 17.8 45 5.7 14.5 31.7 NW 5.1 1023.1
18:10 17.7 46 5.9 14.5 24.5 NNW 5.1 1023.3
18:20 17.5 47 6.1 12.1 23.4 N 5.1 1023.2
18:30 17.2 47 5.8 13.3 27.0 NNW 5.1 1023.2
18:40 17.1 48 6.0 12.1 28.1 NNW 5.1 1023.3
18:50 17.0 49 6.2 11.7 22.0 NW 5.1 1023.4
19:00 16.8 50 6.3 12.9 23.4 NW 5.1 1023.6
19:10 16.8 51 6.6 11.7 19.4 NNW 5.1 1023.7
19:20 16.6 51 6.4 10.4 23.4 NW 5.1 1023.8
19:30 16.5 52 6.6 10.7 20.9 NNW 5.1 1023.8
19:40 16.3 52 6.4 9.0 19.4 NNW 5.1 1024.2
19:50 16.2 52 6.3 9.0 17.3 NNW 5.1 1024.1
20:00 16.1 53 6.5 9.2 17.3 NNW 5.1 1024.2
20:10 16.0 53 6.4 9.2 18.4 NNW 5.1 1024.2
20:20 15.8 55 6.8 7.9 15.8 N 5.1 1024.2
20:30 15.6 55 6.6 8.2 13.3 NNW 5.1 1024.3
20:40 15.5 56 6.8 6.9 14.8 N 5.1 1024.5
20:50 15.3 56 6.6 6.4 15.8 NNW 5.1 1024.5
21:00 15.2 57 6.7 7.9 13.3 NNE 5.1 1024.3
21:10 15.1 57 6.6 6.7 13.3 NNE 5.1 1024.3
21:20 15.0 58 6.8 5.9 12.2 NNE 5.1 1024.2
21:30 15.0 58 6.8 5.7 12.2 N 5.1 1024.3
21:40 14.9 59 7.0 7.8 14.8 N 5.1 1024.3
21:50 15.0 58 6.8 8.2 14.8 N 5.1 1024.4
22:00 14.9 60 7.2 8.7 17.3 NNW 5.1 1024.4
22:10 14.9 59 7.0 9.3 17.3 N 5.1 1024.5
22:20 15.0 58 6.8 10.5 17.3 N 5.1 1024.5
22:30 15.0 58 6.8 8.2 15.8 NNE 5.1 1024.5
22:40 15.1 57 6.6 8.4 15.8 N 5.1 1024.6
22:50 15.1 57 6.6 8.3 15.8 N 5.1 1024.5
23:00 15.0 57 6.6 9.5 17.3 N 5.1 1024.5
23:10 15.0 57 6.6 10.1 18.4 NNE 5.1 1024.5
23:20 15.0 56 6.3 10.2 17.3 NNE 5.1 1024.5
23:30 15.0 56 6.3 9.6 15.8 N 5.1 1024.5
23:40 14.9 57 6.5 8.3 13.3 N 5.1 1024.5
23:50 14.8 58 6.6 6.7 12.2 NNW 5.1 1024.4